Time;durP1;ratioP1;P1;durP2;ratioP2;P2;SDS_P1;SDS_P2;PMS_P1;PMS_P2;Temp;Humidity;BMP_temperature;BMP_pressure;BME280_temperature;BME280_humidity;BME280_pressure;Samples;Min_cycle;Max_cycle;Signal;HPM_P1;HPM_P2
2022/01/29 00:00:51;;;;;;;;;;;;;;;-0.27;100.00;98445.01;1605223;88;21945;-68
2022/01/29 00:03:18;;;;;;;;;;;;;;;-0.30;100.00;98436.11;1605815;88;20197;-68
2022/01/29 00:05:44;;;;;;;;;;;;;;;-0.29;100.00;98457.95;1605934;89;21096;-69
2022/01/29 00:08:10;;;;;;;;;;;;;;;-0.32;100.00;98455.27;1605824;85;20143;-68
2022/01/29 00:10:37;;;;;;;;;;;;;;;-0.33;100.00;98457.69;1605735;89;20185;-68
2022/01/29 00:13:05;;;;;;;;;;;;;;;-0.33;100.00;98457.69;1605959;89;20442;-68
2022/01/29 00:15:33;;;;;;;;;;;;;;;-0.33;100.00;98467.13;1605647;89;20137;-69
2022/01/29 00:17:59;;;;;;;;;;;;;;;-0.35;100.00;98470.63;1605500;89;21960;-69
2022/01/29 00:20:25;;;;;;;;;;;;;;;-0.37;100.00;98470.09;1605745;89;20105;-70
2022/01/29 00:22:52;;;;;;;;;;;;;;;-0.38;100.00;98488.16;1605820;89;20144;-69
2022/01/29 00:25:18;;;;;;;;;;;;;;;-0.38;100.00;98477.37;1605556;89;20167;-68
2022/01/29 00:27:44;;;;;;;;;;;;;;;-0.38;100.00;98483.31;1605763;89;20185;-68
2022/01/29 00:30:16;;;;;;;;;;;;;;;-0.40;100.00;98482.23;1605643;87;21007;-67
2022/01/29 00:32:42;;;;;;;;;;;;;;;-0.40;100.00;98484.12;1605408;89;20108;-68
2022/01/29 00:35:10;;;;;;;;;;;;;;;-0.41;100.00;98485.20;1605586;88;20174;-68
2022/01/29 00:37:36;;;;;;;;;;;;;;;-0.43;100.00;98488.16;1605564;88;20496;-68
2022/01/29 00:40:04;;;;;;;;;;;;;;;-0.42;100.00;98486.27;1605830;89;20511;-68
2022/01/29 00:42:32;;;;;;;;;;;;;;;-0.40;100.00;98488.16;1605735;89;21090;-68
2022/01/29 00:45:00;;;;;;;;;;;;;;;-0.41;100.00;98487.35;1605586;88;20139;-69
2022/01/29 00:47:28;;;;;;;;;;;;;;;-0.38;100.00;98484.66;1605429;88;20204;-69
2022/01/29 00:49:58;;;;;;;;;;;;;;;-0.38;100.00;98484.12;1605420;88;20514;-68
2022/01/29 00:52:24;;;;;;;;;;;;;;;-0.38;100.00;98490.86;1601425;88;20205;-69
2022/01/29 00:54:50;;;;;;;;;;;;;;;-0.38;100.00;98500.84;1594539;90;21034;-70
2022/01/29 00:57:17;;;;;;;;;;;;;;;-0.37;100.00;98502.45;1594604;90;20230;-70
2022/01/29 00:59:43;;;;;;;;;;;;;;;-0.37;100.00;98498.41;1594883;90;20145;-69
2022/01/29 01:02:11;;;;;;;;;;;;;;;-0.37;100.00;98512.70;1594836;90;20146;-68
2022/01/29 01:04:39;;;;;;;;;;;;;;;-0.38;100.00;98509.73;1594355;90;20180;-70
2022/01/29 01:07:07;;;;;;;;;;;;;;;-0.38;100.00;98500.30;1594804;88;21075;-70
2022/01/29 01:09:36;;;;;;;;;;;;;;;-0.37;100.00;98507.84;1594467;90;20206;-69
2022/01/29 01:12:08;;;;;;;;;;;;;;;-0.37;100.00;98511.89;1593962;88;20097;-70
2022/01/29 01:14:40;;;;;;;;;;;;;;;-0.38;100.00;98513.78;1594663;90;20178;-69
2022/01/29 01:17:12;;;;;;;;;;;;;;;-0.38;100.00;98512.97;1595267;89;20151;-70
2022/01/29 01:19:42;;;;;;;;;;;;;;;-0.39;100.00;98510.81;1594758;90;20126;-70
2022/01/29 01:22:07;;;;;;;;;;;;;;;-0.39;100.00;98510.00;1573781;90;20109;-71
2022/01/29 01:24:41;;;;;;;;;;;;;;;-0.41;100.00;98506.23;1594796;90;20169;-69
2022/01/29 01:27:15;;;;;;;;;;;;;;;-0.40;100.00;98520.52;1592786;90;20178;-70
2022/01/29 01:29:41;;;;;;;;;;;;;;;-0.40;100.00;98521.87;1594617;89;20205;-69
2022/01/29 01:32:15;;;;;;;;;;;;;;;-0.42;100.00;98519.44;1594715;89;21228;-69
2022/01/29 01:35:09;;;;;;;;;;;;;;;-0.42;100.00;98505.95;1594199;88;20190;-70
2022/01/29 01:37:34;;;;;;;;;;;;;;;-0.41;100.00;98526.98;1591074;90;20137;-69
2022/01/29 01:39:46;;;;;;;;;;;;;;;-0.41;100.00;98540.47;1592536;89;20176;-69
2022/01/29 01:42:20;;;;;;;;;;;;;;;-0.42;100.00;98541.02;1558506;90;20229;-71
2022/01/29 01:44:52;;;;;;;;;;;;;;;-0.41;100.00;98552.06;1594499;90;21097;-71
2022/01/29 01:47:25;;;;;;;;;;;;;;;-0.42;100.00;98542.90;1594722;89;20136;-69
2022/01/29 01:50:01;;;;;;;;;;;;;;;-0.42;100.00;98551.80;1594706;89;20168;-68
2022/01/29 01:52:27;;;;;;;;;;;;;;;-0.42;100.00;98551.80;1594904;88;20192;-70
2022/01/29 01:55:01;;;;;;;;;;;;;;;-0.43;100.00;98564.20;1594686;90;20177;-69
2022/01/29 01:57:25;;;;;;;;;;;;;;;-0.45;100.00;98565.81;1594827;90;21849;-69
2022/01/29 01:59:54;;;;;;;;;;;;;;;-0.45;100.00;98558.27;1594841;89;20104;-70
2022/01/29 02:02:21;;;;;;;;;;;;;;;-0.43;100.00;98569.05;1594487;89;20183;-71
2022/01/29 02:04:56;;;;;;;;;;;;;;;-0.43;100.00;98565.55;1594867;90;20193;-69
2022/01/29 02:07:24;;;;;;;;;;;;;;;-0.42;100.00;98582.00;1594133;88;20176;-69
2022/01/29 02:09:50;;;;;;;;;;;;;;;-0.43;100.00;98583.08;1594516;89;21178;-71
2022/01/29 02:12:29;;;;;;;;;;;;;;;-0.43;100.00;98584.42;1576794;90;20132;-71
2022/01/29 02:14:56;;;;;;;;;;;;;;;-0.44;100.00;98586.31;1594796;89;20140;-69
2022/01/29 02:17:40;;;;;;;;;;;;;;;-0.44;100.00;98594.94;1573603;90;20137;-70
2022/01/29 02:20:04;;;;;;;;;;;;;;;-0.45;100.00;98604.10;1593836;90;20209;-70
2022/01/29 02:22:26;;;;;;;;;;;;;;;-0.46;100.00;98595.74;1593666;88;22130;-71
2022/01/29 02:24:56;;;;;;;;;;;;;;;-0.47;100.00;98607.06;1594795;88;20128;-70
2022/01/29 02:27:28;;;;;;;;;;;;;;;-0.48;100.00;98605.45;1573882;90;20200;-70
2022/01/29 02:30:04;;;;;;;;;;;;;;;-0.50;100.00;98598.16;1594694;89;20513;-69
2022/01/29 02:32:31;;;;;;;;;;;;;;;-0.49;100.00;98611.10;1594980;88;20188;-69
2022/01/29 02:35:03;;;;;;;;;;;;;;;-0.47;100.00;98617.04;1574602;90;22141;-70
2022/01/29 02:37:32;;;;;;;;;;;;;;;-0.47;100.00;98622.43;1594159;89;20162;-72
2022/01/29 02:40:06;;;;;;;;;;;;;;;-0.48;100.00;98622.97;1594818;90;20220;-72
2022/01/29 02:42:36;;;;;;;;;;;;;;;-0.49;100.00;98628.09;1594733;90;20464;-72
2022/01/29 02:45:03;;;;;;;;;;;;;;;-0.48;100.00;98630.25;1594545;90;20185;-72
2022/01/29 02:47:33;;;;;;;;;;;;;;;-0.47;100.00;98646.16;1594793;90;21278;-70
2022/01/29 02:50:00;;;;;;;;;;;;;;;-0.46;100.00;98632.95;1594946;90;20176;-70
2022/01/29 02:52:26;;;;;;;;;;;;;;;-0.45;100.00;98645.89;1596425;88;20176;-71
2022/01/29 02:54:54;;;;;;;;;;;;;;;-0.44;100.00;98635.38;1619893;88;20568;-70
2022/01/29 02:57:25;;;;;;;;;;;;;;;-0.42;100.00;98653.45;1619226;88;20149;-69
2022/01/29 02:59:51;;;;;;;;;;;;;;;-0.43;100.00;98643.74;1619266;88;21198;-70
2022/01/29 03:02:23;;;;;;;;;;;;;;;-0.43;100.00;98651.83;1620680;86;20184;-70
2022/01/29 03:04:55;;;;;;;;;;;;;;;-0.43;100.00;98635.66;1625765;87;20174;-70
2022/01/29 03:07:28;;;;;;;;;;;;;;;-0.43;100.00;98657.23;1632126;87;20160;-69
2022/01/29 03:09:56;;;;;;;;;;;;;;;-0.42;100.00;98658.84;1619327;88;20156;-70
2022/01/29 03:12:27;;;;;;;;;;;;;;;-0.42;100.00;98670.98;1619813;88;21096;-69
2022/01/29 03:14:59;;;;;;;;;;;;;;;-0.41;100.00;98671.25;1619481;88;20244;-68
2022/01/29 03:17:31;;;;;;;;;;;;;;;-0.38;100.00;98676.11;1619162;88;20096;-71
2022/01/29 03:19:58;;;;;;;;;;;;;;;-0.40;100.00;98681.77;1600299;88;20157;-69
2022/01/29 03:22:34;;;;;;;;;;;;;;;-0.42;100.00;98688.51;1601707;88;20165;-69
2022/01/29 03:25:04;;;;;;;;;;;;;;;-0.42;100.00;98692.55;1617048;88;20699;-68
2022/01/29 03:27:36;;;;;;;;;;;;;;;-0.41;100.00;98692.83;1619157;88;20209;-73
2022/01/29 03:30:09;;;;;;;;;;;;;;;-0.42;100.00;98700.10;1619384;88;20184;-72
2022/01/29 03:32:39;;;;;;;;;;;;;;;-0.42;100.00;98707.38;1616382;88;20192;-71
2022/01/29 03:35:11;;;;;;;;;;;;;;;-0.42;100.00;98700.64;1619822;88;20166;-72
2022/01/29 03:37:43;;;;;;;;;;;;;;;-0.41;100.00;98706.31;1601582;88;20144;-71
2022/01/29 03:40:12;;;;;;;;;;;;;;;-0.44;100.00;98710.34;1621925;88;20128;-71
2022/01/29 03:43:00;;;;;;;;;;;;;;;-0.46;100.00;98717.89;1600914;88;20112;-73
2022/01/29 03:45:21;;;;;;;;;;;;;;;-0.50;100.00;98715.44;1599440;88;20097;-72
2022/01/29 03:47:49;;;;;;;;;;;;;;;-0.52;100.00;98712.20;1601525;88;20128;-72
2022/01/29 03:50:20;;;;;;;;;;;;;;;-0.57;100.00;98724.84;1619030;88;22643;-72
2022/01/29 03:52:52;;;;;;;;;;;;;;;-0.62;100.00;98720.27;1617947;88;20128;-70
2022/01/29 03:55:27;;;;;;;;;;;;;;;-0.63;100.00;98725.92;1586261;89;20135;-69
2022/01/29 03:57:53;;;;;;;;;;;;;;;-0.62;100.00;98724.85;1619089;86;20485;-69
2022/01/29 04:00:21;;;;;;;;;;;;;;;-0.64;100.00;98731.05;1606575;88;20208;-70
2022/01/29 04:02:53;;;;;;;;;;;;;;;-0.64;100.00;98753.95;1606289;89;21136;-69
2022/01/29 04:05:21;;;;;;;;;;;;;;;-0.63;100.00;98756.39;1605899;89;20180;-69
2022/01/29 04:07:53;;;;;;;;;;;;;;;-0.61;100.00;98753.44;1594657;89;20192;-69
2022/01/29 04:10:28;;;;;;;;;;;;;;;-0.62;100.00;98749.92;1605862;87;20603;-71
2022/01/29 04:13:11;;;;;;;;;;;;;;;-0.63;100.00;98750.19;1605799;89;20188;-70
2022/01/29 04:15:28;;;;;;;;;;;;;;;-0.62;100.00;98766.64;1602519;88;21228;-71
2022/01/29 04:18:01;;;;;;;;;;;;;;;-0.64;100.00;98767.44;1606037;89;20483;-71
2022/01/29 04:20:34;;;;;;;;;;;;;;;-0.65;100.00;98765.27;1604894;89;20131;-70
2022/01/29 04:23:04;;;;;;;;;;;;;;;-0.66;100.00;98756.91;1605594;89;20188;-69
2022/01/29 04:25:32;;;;;;;;;;;;;;;-0.68;100.00;98759.88;1605589;89;20173;-69
2022/01/29 04:28:07;;;;;;;;;;;;;;;-0.67;100.00;98769.58;1600484;89;21255;-68
2022/01/29 04:30:31;;;;;;;;;;;;;;;-0.64;100.00;98768.25;1605509;89;20435;-68
2022/01/29 04:33:43;;;;;;;;;;;;;;;-0.63;100.00;98784.70;1602118;89;20096;-71
2022/01/29 04:35:49;;;;;;;;;;;;;;;-0.63;100.00;98780.65;1618844;87;20182;-68
2022/01/29 04:38:06;;;;;;;;;;;;;;;-0.62;100.00;98792.25;1628728;87;20209;-68
2022/01/29 04:40:45;;;;;;;;;;;;;;;-0.64;100.00;98790.34;1631921;88;21175;-67
2022/01/29 04:43:13;;;;;;;;;;;;;;;-0.64;100.00;98799.24;1631358;86;20984;-69
2022/01/29 04:45:43;;;;;;;;;;;;;;;-0.64;100.00;98795.73;1632191;88;20165;-69
2022/01/29 04:48:15;;;;;;;;;;;;;;;-0.64;100.00;98790.34;1621718;88;20134;-69
2022/01/29 04:50:52;;;;;;;;;;;;;;;-0.63;100.00;98805.45;1620769;88;20134;-69
2022/01/29 04:53:20;;;;;;;;;;;;;;;-0.64;100.00;98803.83;1631400;87;21154;-69
2022/01/29 04:55:50;;;;;;;;;;;;;;;-0.62;100.00;98819.20;1631828;88;20123;-72
2022/01/29 04:58:18;;;;;;;;;;;;;;;-0.59;100.00;98824.08;1620659;88;20110;-70
2022/01/29 05:00:53;;;;;;;;;;;;;;;-0.58;100.00;98821.12;1631934;87;20151;-69
2022/01/29 05:06:00;;;;;;;;;;;;;;;-0.59;100.00;98835.67;1610739;86;21156;-68
2022/01/29 05:08:26;;;;;;;;;;;;;;;-0.59;100.00;98838.91;1613955;88;20174;-68
2022/01/29 05:11:01;;;;;;;;;;;;;;;-0.60;100.00;98837.28;1630383;88;20477;-68
2022/01/29 05:13:28;;;;;;;;;;;;;;;-0.61;100.00;98839.70;1628518;86;20156;-68
2022/01/29 05:27:13;;;;;;;;;;;;;;;-0.68;100.00;98853.40;1616709;88;20164;-70
2022/01/29 05:29:42;;;;;;;;;;;;;;;-0.68;100.00;98866.88;1605967;89;20172;-70
2022/01/29 05:32:15;;;;;;;;;;;;;;;-0.71;100.00;98873.59;1605940;89;21257;-71
2022/01/29 05:34:51;;;;;;;;;;;;;;;-0.75;100.00;98883.27;1605346;88;20164;-72
2022/01/29 05:37:28;;;;;;;;;;;;;;;-0.77;100.00;98881.37;1615903;88;20140;-74
2022/01/29 05:39:56;;;;;;;;;;;;;;;-0.79;100.00;98880.81;1605902;88;20131;-78
2022/01/29 05:42:24;;;;;;;;;;;;;;;-0.81;100.00;98885.65;1605719;89;20170;-73
2022/01/29 05:44:55;;;;;;;;;;;;;;;-0.81;100.00;98888.87;1605254;89;21098;-73
2022/01/29 05:47:23;;;;;;;;;;;;;;;-0.84;100.00;98890.20;1606194;89;20104;-72
2022/01/29 05:50:04;;;;;;;;;;;;;;;-0.84;100.00;98900.98;1605908;88;20515;-71
2022/01/29 05:52:34;;;;;;;;;;;;;;;-0.87;100.00;98902.03;1605951;89;20945;-71
2022/01/29 05:55:02;;;;;;;;;;;;;;;-0.91;100.00;98909.81;1597041;88;20208;-70
2022/01/29 05:57:30;;;;;;;;;;;;;;;-0.92;100.00;98914.92;1595497;87;21199;-70
2022/01/29 06:00:10;;;;;;;;;;;;;;;-0.93;100.00;98917.88;1594224;90;20432;-69
2022/01/29 06:02:29;;;;;;;;;;;;;;;-0.92;100.00;98915.45;1595372;87;20181;-69
2022/01/29 06:05:01;;;;;;;;;;;;;;;-0.93;100.00;98928.12;1605532;88;20217;-69
2022/01/29 06:07:29;;;;;;;;;;;;;;;-0.94;100.00;98933.23;1590057;88;20196;-71
2022/01/29 06:10:05;;;;;;;;;;;;;;;-0.94;100.00;98925.14;1594667;90;21188;-68
2022/01/29 06:12:40;;;;;;;;;;;;;;;-0.92;100.00;98939.70;1596992;87;20221;-68
2022/01/29 06:15:11;;;;;;;;;;;;;;;-0.94;100.00;98948.05;1606167;88;20133;-70
2022/01/29 06:17:45;;;;;;;;;;;;;;;-0.92;100.00;98947.80;1595034;90;20491;-69
2022/01/29 06:20:17;;;;;;;;;;;;;;;-0.91;100.00;98957.50;1594228;89;20188;-69
2022/01/29 06:22:43;;;;;;;;;;;;;;;-0.89;100.00;98954.83;1604491;87;21139;-69
2022/01/29 06:25:20;;;;;;;;;;;;;;;-0.89;100.00;98958.88;1593039;88;20126;-75
2022/01/29 06:27:47;;;;;;;;;;;;;;;-0.88;100.00;98964.55;1598033;88;20118;-71
2022/01/29 06:30:16;;;;;;;;;;;;;;;-0.88;100.00;98959.16;1619669;88;20158;-67
2022/01/29 06:32:44;;;;;;;;;;;;;;;-0.84;100.00;98954.88;1619606;88;20182;-71
2022/01/29 06:35:10;;;;;;;;;;;;;;;-0.84;100.00;98967.01;1620006;88;21945;-69
2022/01/29 06:37:44;;;;;;;;;;;;;;;-0.85;100.00;98973.47;1620070;88;20117;-71
2022/01/29 06:40:09;;;;;;;;;;;;;;;-0.85;100.00;98973.47;1619463;88;20130;-70
2022/01/29 06:42:37;;;;;;;;;;;;;;;-0.86;100.00;98983.97;1619885;88;20183;-68
2022/01/29 06:45:05;;;;;;;;;;;;;;;-0.86;100.00;98989.35;1620233;88;20146;-69
2022/01/29 06:47:33;;;;;;;;;;;;;;;-0.87;100.00;99000.39;1620097;88;21145;-68
2022/01/29 06:50:03;;;;;;;;;;;;;;;-0.88;100.00;98996.06;1619977;88;20207;-70
2022/01/29 06:52:35;;;;;;;;;;;;;;;-0.86;100.00;99000.13;1620048;88;20099;-71
2022/01/29 06:55:03;;;;;;;;;;;;;;;-0.85;100.00;98996.91;1626904;87;20206;-69
2022/01/29 06:57:32;;;;;;;;;;;;;;;-0.85;100.00;99007.15;1630742;87;20177;-68
2022/01/29 06:59:58;;;;;;;;;;;;;;;-0.84;100.00;99008.78;1631609;88;21065;-70
2022/01/29 07:02:31;;;;;;;;;;;;;;;-0.83;100.00;99007.71;1632424;86;20176;-71
2022/01/29 07:04:58;;;;;;;;;;;;;;;-0.83;100.00;99007.71;1645433;87;20473;-70
2022/01/29 07:07:24;;;;;;;;;;;;;;;-0.84;100.00;99011.47;1639942;86;20202;-70
2022/01/29 07:09:50;;;;;;;;;;;;;;;-0.82;100.00;99012.56;1631981;88;20429;-70
2022/01/29 07:12:25;;;;;;;;;;;;;;;-0.78;100.00;99029.33;1621320;88;20165;-70
2022/01/29 07:14:52;;;;;;;;;;;;;;;-0.77;100.00;99025.56;1631537;88;20123;-71
2022/01/29 07:17:24;;;;;;;;;;;;;;;-0.75;100.00;99018.56;1621011;88;20134;-73
2022/01/29 07:19:57;;;;;;;;;;;;;;;-0.74;100.00;99029.62;1632094;88;20488;-71
2022/01/29 07:22:23;;;;;;;;;;;;;;;-0.70;100.00;99028.05;1631777;88;20189;-68
2022/01/29 07:24:55;;;;;;;;;;;;;;;-0.67;100.00;99024.84;1631257;86;39365;-69
2022/01/29 07:27:24;;;;;;;;;;;;;;;-0.68;100.00;99021.88;1620089;88;20644;-68
2022/01/29 07:29:57;;;;;;;;;;;;;;;-0.72;100.00;99034.23;1605709;89;20160;-70
2022/01/29 07:32:31;;;;;;;;;;;;;;;-0.75;100.00;99031.51;1603337;89;20438;-71
2022/01/29 07:35:01;;;;;;;;;;;;;;;-0.73;100.00;99046.08;1595286;89;20121;-70
2022/01/29 07:37:30;;;;;;;;;;;;;;;-0.75;100.00;99046.87;1605419;89;21145;-68
2022/01/29 07:39:56;;;;;;;;;;;;;;;-0.75;100.00;99040.13;1605780;87;20494;-72
2022/01/29 07:42:23;;;;;;;;;;;;;;;-0.77;100.00;99046.31;1605671;89;20089;-72
2022/01/29 07:44:49;;;;;;;;;;;;;;;-0.79;100.00;99051.14;1609899;86;20181;-72
2022/01/29 07:47:17;;;;;;;;;;;;;;;-0.80;100.00;99059.76;1616639;88;20186;-72
2022/01/29 07:49:47;;;;;;;;;;;;;;;-0.81;100.00;99062.17;1618679;88;20149;-70
2022/01/29 07:52:16;;;;;;;;;;;;;;;-0.81;100.00;99067.56;1631308;88;20129;-70
2022/01/29 07:54:42;;;;;;;;;;;;;;;-0.81;100.00;99075.64;1631452;87;20518;-70
2022/01/29 07:57:08;;;;;;;;;;;;;;;-0.82;100.00;99069.98;1623997;86;20455;-70
2022/01/29 07:59:35;;;;;;;;;;;;;;;-0.82;100.00;99071.86;1613863;88;20212;-73
2022/01/29 08:02:04;;;;;;;;;;;;;;;-0.81;100.00;99082.38;1605571;89;21135;-71
2022/01/29 08:04:34;;;;;;;;;;;;;;;-0.78;100.00;99080.53;1602089;89;20144;-70
2022/01/29 08:07:07;;;;;;;;;;;;;;;-0.78;100.00;99077.02;1605749;85;20454;-71
2022/01/29 08:09:38;;;;;;;;;;;;;;;-0.81;100.00;99085.61;1585908;89;20176;-72
2022/01/29 08:12:09;;;;;;;;;;;;;;;-0.81;100.00;99103.13;1605659;87;20192;-71
2022/01/29 08:14:42;;;;;;;;;;;;;;;-0.84;100.00;99092.32;1594650;89;20179;-70
2022/01/29 08:17:11;;;;;;;;;;;;;;;-0.86;100.00;99082.86;1605492;89;20132;-70
2022/01/29 08:19:41;;;;;;;;;;;;;;;-0.90;100.00;99098.72;1605477;89;20236;-70
2022/01/29 08:22:10;;;;;;;;;;;;;;;-0.91;100.00;99103.02;1605214;87;20205;-70
2022/01/29 08:24:39;;;;;;;;;;;;;;;-0.91;100.00;99103.02;1605452;89;20183;-69
2022/01/29 08:27:09;;;;;;;;;;;;;;;-0.93;100.00;99111.34;1608016;86;20158;-71
2022/01/29 08:29:37;;;;;;;;;;;;;;;-0.96;100.00;99125.85;1617204;88;20233;-70
2022/01/29 08:32:07;;;;;;;;;;;;;;;-1.01;100.00;99106.39;1594662;89;20168;-73
2022/01/29 08:34:39;;;;;;;;;;;;;;;-1.04;100.00;99105.02;1605283;89;20471;-69
2022/01/29 08:37:09;;;;;;;;;;;;;;;-1.05;100.00;99112.81;1604884;89;20181;-71
2022/01/29 08:39:41;;;;;;;;;;;;;;;-1.07;100.00;99115.48;1605028;89;21165;-69
2022/01/29 08:42:11;;;;;;;;;;;;;;;-1.05;100.00;99110.66;1601131;88;20161;-69
2022/01/29 08:44:42;;;;;;;;;;;;;;;-1.02;100.00;99114.20;1594981;89;20286;-69
2022/01/29 08:47:11;;;;;;;;;;;;;;;-1.01;100.00;99135.50;1605396;89;20193;-70
2022/01/29 08:49:46;;;;;;;;;;;;;;;-0.96;100.00;99129.89;1605266;89;20184;-69
2022/01/29 08:52:12;;;;;;;;;;;;;;;-0.93;100.00;99134.25;1605439;89;23347;-71
2022/01/29 08:54:43;;;;;;;;;;;;;;;-0.86;100.00;99134.88;1599558;88;20105;-71
2022/01/29 08:57:16;;;;;;;;;;;;;;;-0.86;100.00;99129.48;1593827;89;20217;-71
2022/01/29 08:59:42;;;;;;;;;;;;;;;-0.83;100.00;99130.87;1599196;87;20205;-70
2022/01/29 09:02:08;;;;;;;;;;;;;;;-0.80;100.00;99144.66;1603150;88;20463;-71
2022/01/29 09:04:37;;;;;;;;;;;;;;;-0.75;100.00;99146.06;1594274;88;21157;-71
2022/01/29 09:07:11;;;;;;;;;;;;;;;-0.75;98.71;99143.37;1588715;88;20192;-68
2022/01/29 09:09:50;;;;;;;;;;;;;;;-0.75;97.19;99144.72;1594175;89;20165;-70
2022/01/29 09:12:10;;;;;;;;;;;;;;;-0.74;98.24;99146.34;1593649;90;20218;-71
2022/01/29 09:14:40;;;;;;;;;;;;;;;-0.70;97.91;99138.57;1593962;90;20201;-70
2022/01/29 09:17:04;;;;;;;;;;;;;;;-0.67;97.78;99146.97;1594064;90;22094;-71
2022/01/29 09:19:35;;;;;;;;;;;;;;;-0.68;95.64;99141.30;1593971;89;20137;-70
2022/01/29 09:22:03;;;;;;;;;;;;;;;-0.68;95.31;99152.08;1594269;90;20467;-70
2022/01/29 09:24:31;;;;;;;;;;;;;;;-0.65;95.03;99153.45;1594224;89;20222;-70
2022/01/29 09:27:02;;;;;;;;;;;;;;;-0.63;94.37;99162.64;1593812;90;20176;-70
2022/01/29 09:29:28;;;;;;;;;;;;;;;-0.60;94.03;99155.39;1594567;90;21125;-68
2022/01/29 09:31:54;;;;;;;;;;;;;;;-0.57;93.41;99157.55;1594467;87;20463;-70
2022/01/29 09:34:20;;;;;;;;;;;;;;;-0.53;92.30;99161.38;1605529;88;20177;-70
2022/01/29 09:36:49;;;;;;;;;;;;;;;-0.55;90.80;99143.29;1620216;88;20147;-70
2022/01/29 09:39:18;;;;;;;;;;;;;;;-0.55;90.68;99155.42;1619808;88;20182;-70
2022/01/29 09:41:50;;;;;;;;;;;;;;;-0.52;90.72;99167.05;1620077;88;21614;-71
2022/01/29 09:44:33;;;;;;;;;;;;;;;-0.50;89.73;99163.03;1595553;88;20138;-70
2022/01/29 09:46:47;;;;;;;;;;;;;;;-0.50;88.51;99159.52;1618947;88;20102;-70
2022/01/29 09:49:13;;;;;;;;;;;;;;;-0.49;88.92;99165.20;1577529;88;20182;-70
2022/01/29 09:51:42;;;;;;;;;;;;;;;-0.51;88.76;99167.33;1620035;88;20210;-70
2022/01/29 09:54:10;;;;;;;;;;;;;;;-0.52;88.52;99168.40;1619232;88;20138;-69
2022/01/29 09:56:39;;;;;;;;;;;;;;;-0.49;88.44;99166.02;1619562;87;20134;-70
2022/01/29 09:59:10;;;;;;;;;;;;;;;-0.48;88.20;99172.22;1619838;87;20320;-70
2022/01/29 10:01:40;;;;;;;;;;;;;;;-0.48;88.42;99170.87;1599376;88;20183;-69
2022/01/29 10:04:12;;;;;;;;;;;;;;;-0.48;87.23;99164.13;1616398;87;20172;-71
2022/01/29 10:06:43;;;;;;;;;;;;;;;-0.50;87.27;99171.13;1604040;88;21202;-70
2022/01/29 10:09:19;;;;;;;;;;;;;;;-0.53;86.55;99168.94;1576536;90;20124;-71
2022/01/29 10:11:43;;;;;;;;;;;;;;;-0.53;87.24;99167.59;1589346;90;20311;-71
2022/01/29 10:14:16;;;;;;;;;;;;;;;-0.50;86.29;99177.05;1594370;88;21024;-71
2022/01/29 10:16:46;;;;;;;;;;;;;;;-0.49;85.88;99182.72;1590936;89;20188;-70
2022/01/29 10:19:28;;;;;;;;;;;;;;;-0.48;86.63;99176.27;1594265;89;21868;-71
2022/01/29 10:21:47;;;;;;;;;;;;;;;-0.46;86.93;99174.95;1570323;90;20101;-72
2022/01/29 10:24:18;;;;;;;;;;;;;;;-0.44;86.78;99180.91;1594388;89;20205;-71
2022/01/29 10:26:49;;;;;;;;;;;;;;;-0.42;86.92;99188.73;1594495;90;20465;-72
2022/01/29 10:29:25;;;;;;;;;;;;;;;-0.39;87.40;99186.35;1594587;89;20204;-70
2022/01/29 10:31:54;;;;;;;;;;;;;;;-0.35;87.45;99190.70;1593522;89;21191;-71
2022/01/29 10:34:26;;;;;;;;;;;;;;;-0.34;87.41;99197.73;1576351;90;20185;-68
2022/01/29 10:37:20;;;;;;;;;;;;;;;-0.39;85.69;99192.28;1609525;87;20134;-72
2022/01/29 10:39:51;;;;;;;;;;;;;;;-0.42;86.37;99191.44;1593905;89;20188;-72
2022/01/29 10:42:27;;;;;;;;;;;;;;;-0.47;86.24;99201.63;1572709;90;20156;-72
2022/01/29 10:45:10;;;;;;;;;;;;;;;-0.50;86.18;99203.48;1571250;90;20132;-71
2022/01/29 10:47:54;;;;;;;;;;;;;;;-0.50;86.63;99201.32;1593856;90;20177;-72
2022/01/29 10:50:25;;;;;;;;;;;;;;;-0.52;85.99;99200.22;1594612;89;20101;-73
2022/01/29 10:53:02;;;;;;;;;;;;;;;-0.52;86.47;99200.76;1595017;90;20177;-71
2022/01/29 10:55:20;;;;;;;;;;;;;;;-0.53;85.81;99197.78;1612870;87;20175;-71
2022/01/29 10:57:49;;;;;;;;;;;;;;;-0.57;85.35;99203.39;1586207;89;20109;-72
2022/01/29 11:00:32;;;;;;;;;;;;;;;-0.63;85.57;99203.89;1618859;88;20210;-71
2022/01/29 11:03:07;;;;;;;;;;;;;;;-0.61;86.58;99203.64;1619194;88;20107;-71
2022/01/29 11:05:37;;;;;;;;;;;;;;;-0.60;86.18;99203.92;1618528;88;20469;-71
2022/01/29 11:08:06;;;;;;;;;;;;;;;-0.60;85.50;99191.26;1594574;88;20135;-71
2022/01/29 11:10:40;;;;;;;;;;;;;;;-0.61;85.88;99205.80;1596863;88;20199;-71
2022/01/29 11:13:12;;;;;;;;;;;;;;;-0.59;85.51;99202.33;1619465;88;20182;-72
2022/01/29 11:15:40;;;;;;;;;;;;;;;-0.58;84.64;99201.26;1619083;88;20169;-71
2022/01/29 11:18:06;;;;;;;;;;;;;;;-0.60;84.47;99212.83;1614253;87;20170;-71
2022/01/29 11:20:38;;;;;;;;;;;;;;;-0.63;84.31;99208.47;1616907;88;20481;-71
2022/01/29 11:23:05;;;;;;;;;;;;;;;-0.64;84.45;99210.34;1616656;88;20150;-76
2022/01/29 11:25:36;;;;;;;;;;;;;;;-0.62;84.48;99205.52;1600441;88;20202;-74
2022/01/29 11:28:16;;;;;;;;;;;;;;;-0.61;84.58;99209.84;1619263;88;20190;-78
2022/01/29 11:30:45;;;;;;;;;;;;;;;-0.58;84.22;99211.23;1616250;88;20214;-77
2022/01/29 11:33:11;;;;;;;;;;;;;;;-0.59;84.14;99213.64;1615584;88;20174;-80
2022/01/29 11:35:53;;;;;;;;;;;;;;;-0.58;84.24;99208.53;1619018;88;21170;-70
2022/01/29 11:38:33;;;;;;;;;;;;;;;-0.58;83.96;99210.70;1618875;88;20155;-70
2022/01/29 11:41:02;;;;;;;;;;;;;;;-0.56;83.93;99215.27;1619005;88;20147;-72
2022/01/29 11:43:34;;;;;;;;;;;;;;;-0.53;83.19;99215.30;1618901;88;20202;-71
2022/01/29 11:46:30;;;;;;;;;;;;;;;-0.48;82.94;99216.19;1619018;88;20215;-70
2022/01/29 11:48:52;;;;;;;;;;;;;;;-0.42;83.16;99222.45;1618975;88;21154;-70
2022/01/29 11:51:42;;;;;;;;;;;;;;;-0.34;83.35;99227.41;1618728;88;20449;-70
2022/01/29 11:54:09;;;;;;;;;;;;;;;-0.28;82.15;99230.97;1618938;88;20159;-76
2022/01/29 11:56:37;;;;;;;;;;;;;;;-0.28;82.15;99229.63;1633731;87;21948;-68
2022/01/29 11:59:23;;;;;;;;;;;;;;;-0.22;81.64;99229.96;1644803;86;20186;-72
2022/01/29 12:01:59;;;;;;;;;;;;;;;-0.21;80.63;99231.59;1644809;87;21161;-79
2022/01/29 12:04:54;;;;;;;;;;;;;;;-0.25;80.53;99231.28;1665576;86;20197;-74
2022/01/29 12:07:35;;;;;;;;;;;;;;;-0.24;80.81;99224.01;1702656;82;20213;-75
2022/01/29 12:09:54;;;;;;;;;;;;;;;-0.24;80.71;99219.96;1703663;83;20226;-76
2022/01/29 12:12:24;;;;;;;;;;;;;;;-0.26;80.94;99232.35;1703062;84;20198;-75
2022/01/29 12:14:53;;;;;;;;;;;;;;;-0.26;79.77;99231.53;1703827;84;21060;-71
2022/01/29 12:17:45;;;;;;;;;;;;;;;-0.33;79.65;99226.33;1703176;84;20153;-72
2022/01/29 12:20:20;;;;;;;;;;;;;;;-0.33;79.76;99230.38;1702824;84;20118;-77
2022/01/29 12:22:49;;;;;;;;;;;;;;;-0.35;79.21;99205.55;1704336;83;20233;-76
2022/01/29 12:25:27;;;;;;;;;;;;;;;-0.34;79.60;99229.56;1703591;84;20209;-69
2022/01/29 12:27:59;;;;;;;;;;;;;;;-0.33;79.48;99224.98;1703233;84;21127;-70
2022/01/29 12:30:26;;;;;;;;;;;;;;;-0.29;80.58;99226.11;1704226;83;20505;-79
2022/01/29 12:33:14;;;;;;;;;;;;;;;-0.23;79.50;99213.50;1703962;84;20194;-71
2022/01/29 12:36:03;;;;;;;;;;;;;;;-0.25;78.86;99231.28;1703984;83;20234;-72
2022/01/29 12:38:36;;;;;;;;;;;;;;;-0.25;78.09;99229.13;1672255;84;20540;-69
2022/01/29 12:41:16;;;;;;;;;;;;;;;-0.27;79.39;99232.60;1702581;84;21167;-69
2022/01/29 12:44:04;;;;;;;;;;;;;;;-0.27;77.95;99221.28;1703195;84;20504;-72
2022/01/29 12:46:46;;;;;;;;;;;;;;;-0.28;78.60;99231.79;1703218;84;20130;-78
2022/01/29 12:49:11;;;;;;;;;;;;;;;-0.31;78.04;99230.94;1699747;83;20174;-73
2022/01/29 12:51:54;;;;;;;;;;;;;;;-0.36;78.57;99226.84;1704279;82;20185;-73
2022/01/29 12:54:27;;;;;;;;;;;;;;;-0.42;78.34;99233.23;1703863;83;21146;-74
2022/01/29 12:56:55;;;;;;;;;;;;;;;-0.47;78.13;99239.38;1689192;82;20475;-75
2022/01/29 12:59:21;;;;;;;;;;;;;;;-0.50;78.71;99239.07;1687052;83;20130;-72
2022/01/29 13:01:56;;;;;;;;;;;;;;;-0.54;78.30;99238.75;1689455;83;20210;-71
2022/01/29 13:04:23;;;;;;;;;;;;;;;-0.56;78.12;99233.33;1673069;83;20273;-70
2022/01/29 13:07:00;;;;;;;;;;;;;;;-0.62;78.44;99236.53;1655187;84;20231;-70
2022/01/29 13:09:28;;;;;;;;;;;;;;;-0.65;79.38;99238.91;1685244;83;20210;-72
2022/01/29 13:11:58;;;;;;;;;;;;;;;-0.68;79.30;99237.52;1686954;83;20243;-72